Time;durP1;ratioP1;P1;durP2;ratioP2;P2;SDS_P1;SDS_P2;PMS_P1;PMS_P2;Temp;Humidity;BMP_temperature;BMP_pressure;BME280_temperature;BME280_humidity;BME280_pressure;Samples;Min_cycle;Max_cycle;Signal;HPM_P1;HPM_P2
2022/06/03 00:05:04;;;;;;;6.72;6.13;;;15.10;96.90;;;;;;4944943;29;20246;-86
2022/06/03 00:18:42;;;;;;;;;;;;;;;;;;;;;
2022/06/03 00:22:13;;;;;;;6.93;5.82;;;15.00;96.40;;;;;;4801793;29;20240;-86
2022/06/03 00:28:40;;;;;;;8.23;6.25;;;14.80;96.80;;;;;;4924620;29;20275;-86
2022/06/03 00:31:44;;;;;;;7.60;6.10;;;14.70;96.80;;;;;;4929612;29;20330;-86
2022/06/03 00:34:28;;;;;;;7.22;6.05;;;14.60;96.80;;;;;;4961932;28;20199;-86
2022/06/03 00:37:32;;;;;;;7.60;5.95;;;14.50;97.10;;;;;;5029683;28;20211;-87
2022/06/03 00:47:50;;;;;;;6.07;5.55;;;14.50;97.50;;;;;;4950693;29;20209;-88
2022/06/03 01:07:35;;;;;;;7.25;6.30;;;14.50;97.20;;;;;;4819350;29;20193;-86
2022/06/03 01:23:43;;;;;;;6.70;6.10;;;14.10;98.20;;;;;;4914295;29;20215;-86
2022/06/03 01:43:43;;;;;;;9.45;6.55;;;13.90;98.70;;;;;;4907449;29;20200;-86
2022/06/03 01:50:18;;;;;;;7.53;6.65;;;13.70;99.10;;;;;;4808394;29;20225;-86
2022/06/03 01:53:33;;;;;;;7.18;6.47;;;13.70;99.00;;;;;;4814209;29;20238;-86
2022/06/03 02:00:06;;;;;;;7.20;5.90;;;13.80;98.90;;;;;;4839861;29;20225;-87
2022/06/03 02:03:17;;;;;;;6.55;5.95;;;13.80;99.00;;;;;;4785494;30;20227;-85
2022/06/03 02:09:47;;;;;;;6.53;5.93;;;13.70;99.10;;;;;;4779470;30;20278;-85
2022/06/03 02:12:48;;;;;;;6.57;5.97;;;13.70;99.20;;;;;;4781732;30;20212;-87
2022/06/03 02:15:44;;;;;;;9.38;8.27;;;13.70;99.10;;;;;;4733661;30;20248;-86
2022/06/03 02:18:47;;;;;;;6.53;5.60;;;13.60;99.20;;;;;;4729535;30;20249;-86
2022/06/03 02:21:44;;;;;;;7.45;6.28;;;13.70;99.10;;;;;;4802336;29;20218;-88
2022/06/03 02:24:59;;;;;;;6.22;5.63;;;13.70;99.00;;;;;;4800106;29;20228;-86
2022/06/03 02:28:13;;;;;;;6.13;5.60;;;13.70;99.10;;;;;;4863962;29;20224;-86
2022/06/03 02:31:18;;;;;;;6.55;5.95;;;13.70;99.10;;;;;;4875069;29;20214;-86
2022/06/03 02:34:23;;;;;;;8.80;6.03;;;13.60;99.00;;;;;;4820808;29;20225;-86
2022/06/03 02:37:35;;;;;;;6.65;6.00;;;13.50;99.20;;;;;;4809925;29;20210;-87
2022/06/03 02:40:37;;;;;;;7.10;5.80;;;13.50;99.20;;;;;;4808387;29;20213;-85
2022/06/03 02:43:44;;;;;;;5.90;5.40;;;13.60;99.20;;;;;;4795840;29;20298;-86
2022/06/03 02:46:53;;;;;;;7.70;6.15;;;13.50;99.00;;;;;;4800363;30;20215;-85
2022/06/03 02:50:02;;;;;;;6.60;5.93;;;13.40;99.20;;;;;;4805827;29;20215;-86
2022/06/03 02:53:17;;;;;;;6.40;5.60;;;13.40;99.50;;;;;;4838888;29;20209;-86
2022/06/03 02:56:28;;;;;;;10.27;9.10;;;13.50;99.60;;;;;;4847856;29;20214;-86
2022/06/03 02:59:44;;;;;;;6.95;6.25;;;13.40;99.50;;;;;;4849041;29;20238;-86
2022/06/03 03:02:37;;;;;;;6.72;6.13;;;13.40;99.80;;;;;;4864430;29;20209;-88
2022/06/03 03:09:07;;;;;;;7.38;5.38;;;13.40;99.80;;;;;;4822372;29;20263;-88
2022/06/03 03:18:49;;;;;;;7.43;6.70;;;14.20;99.40;;;;;;4892594;29;20219;-87
2022/06/03 03:21:35;;;;;;;6.80;6.13;;;14.50;97.60;;;;;;4945620;29;20213;-86
2022/06/03 03:24:44;;;;;;;6.55;5.97;;;14.40;97.70;;;;;;4954820;29;20268;-87
2022/06/03 03:31:08;;;;;;;9.15;6.05;;;15.10;96.10;;;;;;4899418;29;20248;-86
2022/06/03 03:33:59;;;;;;;6.88;5.18;;;15.20;95.90;;;;;;4924397;29;20239;-87
2022/06/03 03:36:56;;;;;;;5.90;5.20;;;15.30;95.20;;;;;;4900088;29;20211;-86
2022/06/03 03:40:13;;;;;;;7.50;5.20;;;15.30;94.00;;;;;;4896057;29;20271;-86
2022/06/03 03:53:36;;;;;;;5.35;4.85;;;14.20;97.10;;;;;;4901148;29;20278;-86
2022/06/03 03:56:42;;;;;;;6.57;5.10;;;14.10;97.70;;;;;;4806180;29;20232;-87
2022/06/03 04:00:04;;;;;;;6.38;5.20;;;14.00;98.10;;;;;;4817777;29;20207;-85
2022/06/03 04:10:08;;;;;;;5.88;5.25;;;14.10;99.20;;;;;;4807723;29;20239;-87
2022/06/03 04:13:00;;;;;;;7.18;4.97;;;14.30;98.90;;;;;;4803879;29;20235;-86
2022/06/03 04:33:22;;;;;;;8.25;5.72;;;14.90;97.90;;;;;;4842085;29;20211;-86
2022/06/03 04:36:43;;;;;;;7.68;5.80;;;15.00;97.50;;;;;;4878092;29;20204;-86
2022/06/03 04:40:01;;;;;;;6.20;5.63;;;14.90;97.90;;;;;;4866619;29;20208;-86
2022/06/03 04:43:10;;;;;;;7.47;5.72;;;15.00;97.80;;;;;;4877463;29;20317;-86
2022/06/03 04:49:45;;;;;;;8.60;6.25;;;15.50;97.00;;;;;;4929628;29;20202;-86
2022/06/03 04:53:05;;;;;;;5.93;5.30;;;15.70;96.40;;;;;;4925329;29;20275;-88
2022/06/03 05:03:38;;;;;;;6.30;5.70;;;16.30;95.00;;;;;;4798960;29;20206;-87
2022/06/03 05:13:53;;;;;;;5.45;4.82;;;17.30;92.00;;;;;;4733664;30;20233;-88
2022/06/03 05:27:22;;;;;;;5.85;4.60;;;16.40;94.00;;;;;;4724552;30;20256;-86
2022/06/03 05:33:59;;;;;;;5.45;4.95;;;16.40;94.40;;;;;;4787347;30;20307;-86
2022/06/03 05:37:00;;;;;;;4.72;4.22;;;16.60;94.90;;;;;;4895465;29;20304;-87
2022/06/03 05:49:35;;;;;;;4.88;4.20;;;19.10;85.00;;;;;;5017383;28;20195;-87
2022/06/03 05:52:52;;;;;;;5.30;3.65;;;19.70;81.50;;;;;;5006203;28;20210;-87
2022/06/03 06:26:11;;;;;;;3.28;2.90;;;19.30;80.80;;;;;;4828417;29;20204;-85
2022/06/03 06:29:05;;;;;;;3.13;2.90;;;19.90;79.30;;;;;;4911314;29;20207;-86
2022/06/03 06:31:52;;;;;;;3.65;2.95;;;20.20;78.20;;;;;;4959256;28;20238;-87
2022/06/03 06:34:40;;;;;;;7.05;3.00;;;20.30;76.40;;;;;;5011217;28;20232;-87
2022/06/03 06:37:56;;;;;;;3.50;3.10;;;20.30;76.70;;;;;;5020086;28;20195;-86
2022/06/03 06:40:46;;;;;;;4.72;2.92;;;20.30;79.80;;;;;;4976736;28;20232;-86
2022/06/03 06:43:33;;;;;;;7.32;3.47;;;20.30;79.50;;;;;;5020466;28;20199;-88
2022/06/03 06:46:05;;;;;;;3.05;2.80;;;20.40;78.10;;;;;;5019960;28;20198;-88
2022/06/03 06:49:00;;;;;;;4.72;3.13;;;20.80;76.20;;;;;;5015527;28;20205;-87
2022/06/03 06:51:55;;;;;;;2.85;2.63;;;20.80;70.90;;;;;;5029591;28;20206;-87
2022/06/03 06:54:31;;;;;;;2.50;2.30;;;21.00;66.30;;;;;;5016018;28;20229;-88
2022/06/03 06:57:02;;;;;;;3.55;2.80;;;21.20;60.90;;;;;;5005811;28;20850;-85
2022/06/03 06:59:39;;;;;;;5.15;2.80;;;21.20;61.60;;;;;;5024782;28;20274;-86
2022/06/03 07:02:14;;;;;;;2.70;2.50;;;21.00;60.30;;;;;;5021837;28;20631;-86
2022/06/03 07:04:49;;;;;;;2.97;2.55;;;21.00;59.20;;;;;;5016181;28;20270;-86
2022/06/03 07:07:32;;;;;;;3.03;2.70;;;21.20;57.00;;;;;;5021997;28;20548;-87
2022/06/03 07:10:03;;;;;;;6.05;2.92;;;21.30;57.20;;;;;;5035223;28;20217;-85
2022/06/03 07:12:37;;;;;;;3.38;3.05;;;20.70;66.80;;;;;;5020247;28;20226;-85
2022/06/03 07:15:10;;;;;;;3.50;3.00;;;20.90;66.60;;;;;;5041420;28;20237;-85
2022/06/03 07:21:11;;;;;;;2.92;2.40;;;21.20;64.00;;;;;;5026281;28;20225;-85
2022/06/03 07:23:47;;;;;;;2.83;2.38;;;21.70;61.90;;;;;;5029820;28;20211;-85
2022/06/03 07:26:22;;;;;;;2.70;2.50;;;21.80;61.00;;;;;;5013257;28;20199;-85
2022/06/03 07:28:57;;;;;;;3.35;2.38;;;21.70;58.40;;;;;;5038237;28;20286;-84
2022/06/03 07:31:41;;;;;;;2.97;2.67;;;21.70;59.20;;;;;;5022357;28;20198;-85
2022/06/03 07:34:25;;;;;;;2.92;2.35;;;21.20;63.80;;;;;;5028419;28;20215;-84
2022/06/03 07:36:56;;;;;;;3.83;3.00;;;21.30;60.00;;;;;;5020340;28;20204;-84
2022/06/03 07:39:53;;;;;;;3.08;2.40;;;21.00;65.40;;;;;;5004544;28;20207;-85
2022/06/03 07:42:44;;;;;;;5.30;2.80;;;20.90;66.60;;;;;;5027153;28;20231;-84
2022/06/03 07:45:36;;;;;;;3.90;2.50;;;21.00;66.30;;;;;;5035546;28;20198;-85
2022/06/03 07:48:07;;;;;;;3.70;2.70;;;21.00;70.10;;;;;;5021538;28;20223;-84
2022/06/03 07:50:57;;;;;;;3.00;2.50;;;21.20;67.40;;;;;;5034524;28;20225;-85
2022/06/03 07:53:32;;;;;;;3.15;2.72;;;21.40;65.40;;;;;;5033327;28;20199;-84
2022/06/03 07:55:59;;;;;;;5.57;2.50;;;21.70;64.30;;;;;;5005896;28;20212;-84
2022/06/03 07:58:37;;;;;;;2.92;2.58;;;21.80;62.50;;;;;;5020771;28;20278;-84
2022/06/03 08:01:05;;;;;;;2.85;2.55;;;21.90;60.40;;;;;;5009879;28;20206;-86
2022/06/03 08:03:41;;;;;;;2.63;2.42;;;22.10;59.90;;;;;;5038514;28;20213;-86
2022/06/03 08:06:11;;;;;;;3.47;2.45;;;22.50;56.10;;;;;;5025100;28;20196;-86
2022/06/03 08:11:44;;;;;;;3.13;2.72;;;22.50;55.20;;;;;;5013035;28;20195;-85
2022/06/03 08:14:11;;;;;;;2.75;2.50;;;22.50;54.70;;;;;;5018600;28;20211;-87
2022/06/03 08:16:41;;;;;;;2.80;2.55;;;22.80;53.90;;;;;;5020031;28;20206;-86
2022/06/03 08:19:26;;;;;;;2.40;2.20;;;23.00;50.20;;;;;;5027300;28;20582;-85
2022/06/03 08:21:59;;;;;;;2.05;1.85;;;24.30;44.20;;;;;;4988533;28;20215;-83
2022/06/03 08:24:31;;;;;;;5.00;2.80;;;27.00;32.60;;;;;;5016936;28;20206;-83
2022/06/03 08:27:06;;;;;;;3.13;2.20;;;28.30;25.30;;;;;;5018724;28;20195;-83
2022/06/03 08:29:36;;;;;;;5.03;2.40;;;30.50;21.20;;;;;;5007494;28;20579;-83
2022/06/03 08:32:08;;;;;;;5.78;2.63;;;32.20;17.70;;;;;;5028606;28;20209;-83
2022/06/03 08:34:55;;;;;;;3.60;2.70;;;32.90;16.50;;;;;;5018055;28;20267;-83
2022/06/03 08:37:26;;;;;;;9.75;2.83;;;32.60;16.90;;;;;;5016247;28;20202;-82
2022/06/03 08:39:56;;;;;;;3.90;2.67;;;32.80;16.80;;;;;;5017240;28;20198;-83
2022/06/03 08:42:42;;;;;;;2.83;2.50;;;33.40;16.20;;;;;;5001671;28;20223;-84
2022/06/03 08:45:35;;;;;;;8.70;3.15;;;34.30;14.20;;;;;;5010774;28;20202;-84
2022/06/03 08:48:08;;;;;;;4.35;3.15;;;33.00;15.30;;;;;;5016802;28;20202;-83
2022/06/03 08:50:43;;;;;;;4.30;3.00;;;33.30;15.50;;;;;;5020377;28;20194;-83
2022/06/03 08:53:23;;;;;;;4.75;3.10;;;34.30;13.30;;;;;;5011081;28;20205;-83
2022/06/03 08:55:54;;;;;;;3.45;3.15;;;35.70;11.10;;;;;;5016973;28;20599;-82
2022/06/03 08:58:37;;;;;;;3.55;2.97;;;35.10;11.70;;;;;;5016356;28;20203;-83
2022/06/03 09:01:19;;;;;;;3.67;3.38;;;33.80;14.30;;;;;;5007281;28;20683;-84
2022/06/03 09:07:19;;;;;;;3.83;3.45;;;35.10;11.50;;;;;;5016230;28;20182;-84
2022/06/03 09:10:12;;;;;;;3.45;3.22;;;33.50;13.30;;;;;;5014728;28;20198;-84
2022/06/03 09:12:57;;;;;;;3.22;3.03;;;33.60;13.60;;;;;;5018625;28;20718;-84
2022/06/03 09:15:34;;;;;;;3.45;3.13;;;34.70;12.00;;;;;;5021157;28;20214;-83
2022/06/03 09:18:10;;;;;;;4.07;3.42;;;33.60;12.40;;;;;;5016237;28;20198;-84
2022/06/03 09:20:44;;;;;;;4.97;3.70;;;34.90;11.80;;;;;;5016547;28;20217;-83
2022/06/03 09:23:20;;;;;;;5.88;3.38;;;35.30;10.50;;;;;;5010491;28;20658;-83
2022/06/03 09:25:49;;;;;;;3.75;3.40;;;34.90;11.90;;;;;;5000716;28;20666;-84
2022/06/03 09:28:31;;;;;;;3.88;3.60;;;36.20;10.10;;;;;;5014132;28;20199;-84
2022/06/03 09:31:21;;;;;;;3.83;3.50;;;36.20;10.10;;;;;;5016268;28;20297;-84
2022/06/03 09:33:58;;;;;;;3.80;3.53;;;36.50;8.80;;;;;;5008800;28;20539;-84
2022/06/03 09:36:28;;;;;;;4.60;4.03;;;36.90;9.10;;;;;;5010526;28;20638;-84
2022/06/03 09:39:03;;;;;;;4.15;3.85;;;37.30;9.10;;;;;;5011561;28;20202;-84
2022/06/03 09:41:41;;;;;;;4.60;3.88;;;36.60;8.30;;;;;;5011942;28;20597;-86
2022/06/03 09:44:23;;;;;;;4.55;3.97;;;36.50;9.90;;;;;;5000406;28;20566;-85
2022/06/03 09:47:05;;;;;;;4.20;3.90;;;36.30;8.20;;;;;;5006866;28;20312;-85
2022/06/03 09:49:46;;;;;;;4.15;3.85;;;36.10;8.80;;;;;;5002688;28;20195;-85
2022/06/03 09:52:24;;;;;;;4.15;3.90;;;36.00;9.40;;;;;;5007332;28;20195;-86
2022/06/03 09:54:54;;;;;;;4.63;3.80;;;36.10;9.60;;;;;;5001661;28;20226;-86
2022/06/03 09:57:36;;;;;;;4.57;3.83;;;36.40;9.20;;;;;;5003344;28;20202;-86
2022/06/03 10:00:17;;;;;;;3.92;3.63;;;36.60;9.10;;;;;;4997742;28;20758;-85
2022/06/03 10:02:45;;;;;;;4.38;4.07;;;37.40;8.20;;;;;;4998901;28;20192;-85
2022/06/03 10:05:32;;;;;;;5.30;3.90;;;36.70;9.90;;;;;;5001028;28;20214;-86
2022/06/03 10:08:19;;;;;;;4.43;4.10;;;37.00;7.60;;;;;;5004294;28;20191;-87
2022/06/03 10:14:09;;;;;;;5.50;5.00;;;36.70;11.10;;;;;;5013051;28;20596;-85
2022/06/03 10:16:56;;;;;;;5.15;4.72;;;36.60;10.00;;;;;;5004658;28;20191;-85
2022/06/03 10:20:02;;;;;;;4.13;3.83;;;35.90;9.40;;;;;;5017365;28;20198;-85
2022/06/03 10:22:45;;;;;;;4.47;4.18;;;36.20;11.70;;;;;;5008126;28;20197;-85
2022/06/03 10:25:14;;;;;;;6.43;3.95;;;37.00;9.60;;;;;;5002747;28;20211;-85
2022/06/03 10:27:40;;;;;;;4.50;4.10;;;36.80;9.20;;;;;;5013556;28;20198;-84
2022/06/03 10:30:28;;;;;;;5.63;3.88;;;36.30;10.10;;;;;;5031853;28;20237;-85
2022/06/03 10:33:17;;;;;;;4.10;3.80;;;36.60;10.80;;;;;;5002993;28;20195;-85
2022/06/03 10:35:59;;;;;;;4.45;3.97;;;36.10;11.10;;;;;;5017160;28;20218;-84
2022/06/03 10:38:39;;;;;;;6.43;3.75;;;35.60;11.10;;;;;;5025464;28;20203;-85
2022/06/03 10:41:10;;;;;;;4.15;3.75;;;34.90;13.40;;;;;;5012933;28;20238;-85
2022/06/03 10:43:41;;;;;;;3.80;3.50;;;35.20;14.10;;;;;;5020135;28;20195;-84
2022/06/03 10:46:19;;;;;;;3.40;3.10;;;35.20;12.00;;;;;;5015640;28;20206;-85
2022/06/03 10:49:11;;;;;;;3.63;3.30;;;35.40;10.40;;;;;;5021586;28;20196;-85
2022/06/03 11:02:56;;;;;;;3.75;3.45;;;34.10;14.30;;;;;;5005474;28;20205;-83
2022/06/03 11:05:29;;;;;;;5.40;3.28;;;33.40;14.40;;;;;;5014167;28;20195;-83
2022/06/03 11:08:11;;;;;;;3.58;3.05;;;32.50;16.90;;;;;;5010389;28;20191;-82
2022/06/03 11:10:41;;;;;;;4.00;3.00;;;31.80;17.50;;;;;;5004360;28;20197;-80
2022/06/03 11:13:12;;;;;;;4.05;3.20;;;31.40;17.80;;;;;;5005675;28;20229;-79
2022/06/03 11:15:41;;;;;;;3.10;2.80;;;31.10;18.80;;;;;;5005700;28;20211;-85
2022/06/03 11:18:46;;;;;;;3.60;3.30;;;31.10;17.20;;;;;;5006764;28;20190;-80
2022/06/03 11:21:23;;;;;;;2.85;2.65;;;30.80;17.40;;;;;;5006588;28;21221;-80
2022/06/03 11:23:51;;;;;;;3.47;2.75;;;30.80;17.00;;;;;;4998771;28;20195;-82
2022/06/03 11:26:18;;;;;;;5.40;3.13;;;30.50;19.80;;;;;;5008609;28;20195;-82
2022/06/03 11:28:57;;;;;;;5.07;2.67;;;30.00;18.50;;;;;;5017212;28;20201;-81
2022/06/03 11:31:29;;;;;;;6.18;2.90;;;29.90;17.90;;;;;;5007393;28;20210;-82
2022/06/03 11:34:15;;;;;;;2.92;2.63;;;29.00;20.30;;;;;;5014090;28;20202;-82
2022/06/03 11:36:49;;;;;;;2.78;2.58;;;29.40;20.60;;;;;;5019287;28;20207;-82
2022/06/03 11:39:30;;;;;;;3.08;2.88;;;29.40;23.10;;;;;;5004640;28;20199;-82
2022/06/03 11:42:08;;;;;;;3.88;2.55;;;29.30;23.60;;;;;;5029748;28;20225;-82
2022/06/03 11:44:48;;;;;;;4.35;2.60;;;29.40;22.50;;;;;;5014755;28;20557;-81
2022/06/03 11:47:32;;;;;;;3.75;2.53;;;29.10;20.00;;;;;;5010528;28;20199;-82
2022/06/03 11:50:08;;;;;;;2.67;2.47;;;29.30;19.90;;;;;;5011782;28;20639;-81
2022/06/03 11:52:47;;;;;;;5.82;2.50;;;29.50;19.80;;;;;;5012627;28;20191;-86
2022/06/03 11:55:15;;;;;;;4.05;2.78;;;29.60;20.30;;;;;;5015163;28;20234;-81
2022/06/03 11:57:51;;;;;;;3.78;2.63;;;29.50;20.70;;;;;;5028973;28;20199;-81
2022/06/03 12:00:37;;;;;;;2.78;2.58;;;29.30;21.20;;;;;;5014858;28;20221;-82
2022/06/03 12:03:17;;;;;;;4.32;2.63;;;29.30;21.10;;;;;;5023593;28;20254;-85
2022/06/03 12:06:08;;;;;;;3.03;2.72;;;29.40;20.00;;;;;;5012620;28;20642;-83
2022/06/03 12:08:52;;;;;;;4.60;2.58;;;29.50;20.90;;;;;;5004403;28;20195;-82
2022/06/03 12:14:35;;;;;;;2.58;2.38;;;29.50;21.20;;;;;;5015470;28;20233;-81
2022/06/03 12:17:29;;;;;;;5.07;2.53;;;29.70;20.90;;;;;;5022043;28;20257;-81
2022/06/03 12:20:37;;;;;;;4.93;2.40;;;29.80;20.00;;;;;;5027478;28;20195;-81
2022/06/03 12:23:44;;;;;;;4.97;2.70;;;30.00;18.60;;;;;;4958493;28;20232;-82
2022/06/03 12:26:20;;;;;;;3.80;3.22;;;29.80;20.00;;;;;;4961475;28;20207;-81
2022/06/03 12:29:14;;;;;;;4.15;3.05;;;29.80;19.90;;;;;;4958962;28;20654;-83
2022/06/03 12:31:45;;;;;;;4.20;2.70;;;29.60;20.20;;;;;;4954689;28;20235;-82
2022/06/03 12:34:23;;;;;;;6.25;2.67;;;29.40;20.70;;;;;;4960929;28;20244;-82
2022/06/03 12:36:57;;;;;;;3.78;2.80;;;29.40;20.40;;;;;;4949697;28;20660;-82
2022/06/03 12:39:57;;;;;;;3.90;2.67;;;29.50;19.90;;;;;;4943814;28;20693;-83
2022/06/03 12:42:40;;;;;;;4.10;2.83;;;29.40;20.20;;;;;;4950559;28;20253;-82
2022/06/03 12:48:51;;;;;;;4.25;2.88;;;29.30;20.90;;;;;;4956508;28;20192;-80
2022/06/03 12:51:29;;;;;;;4.07;3.00;;;28.90;22.20;;;;;;4959259;28;20193;-80
2022/06/03 12:53:59;;;;;;;2.85;2.65;;;28.80;23.10;;;;;;4940042;28;20201;-79
2022/06/03 12:56:52;;;;;;;3.42;3.00;;;28.60;23.60;;;;;;4941987;28;20356;-79
2022/06/03 12:59:45;;;;;;;4.38;2.90;;;28.60;24.00;;;;;;4995118;28;20210;-79
2022/06/03 13:02:18;;;;;;;3.65;2.85;;;28.50;25.20;;;;;;5017032;28;20202;-82
2022/06/03 13:05:08;;;;;;;3.35;3.05;;;28.50;25.30;;;;;;5012493;28;20199;-81
2022/06/03 13:07:58;;;;;;;4.13;3.10;;;28.40;26.40;;;;;;5009896;28;20242;-79
2022/06/03 13:10:31;;;;;;;3.65;3.10;;;28.30;26.60;;;;;;5014026;28;20186;-82
2022/06/03 13:13:48;;;;;;;3.97;3.33;;;28.30;26.50;;;;;;5014215;28;20577;-84
2022/06/03 13:16:52;;;;;;;6.65;3.47;;;28.40;27.10;;;;;;4933029;29;20260;-83
2022/06/03 13:19:50;;;;;;;4.28;3.20;;;27.80;29.00;;;;;;4936563;29;20213;-82
2022/06/03 13:22:57;;;;;;;4.13;2.88;;;27.90;28.90;;;;;;4933552;29;20675;-84
2022/06/03 13:25:33;;;;;;;4.07;3.22;;;27.80;27.80;;;;;;4925069;29;20206;-85
2022/06/03 13:28:35;;;;;;;6.07;3.33;;;27.80;29.50;;;;;;4937294;29;20261;-84
2022/06/03 13:31:19;;;;;;;5.47;3.47;;;27.60;30.90;;;;;;4936744;29;20222;-81
2022/06/03 13:34:26;;;;;;;3.50;3.20;;;27.50;31.80;;;;;;4925991;29;20204;-79
2022/06/03 13:37:28;;;;;;;4.32;3.45;;;27.50;32.30;;;;;;4922873;29;20622;-81
2022/06/03 13:40:16;;;;;;;4.47;3.28;;;27.40;31.80;;;;;;4877684;29;20215;-82
2022/06/03 13:43:00;;;;;;;3.47;3.17;;;27.30;32.90;;;;;;4878324;29;20231;-81
2022/06/03 13:45:45;;;;;;;6.93;3.30;;;27.20;32.60;;;;;;4877482;29;20793;-80
2022/06/03 13:48:16;;;;;;;6.57;3.38;;;27.20;32.00;;;;;;4876324;29;20291;-84
2022/06/03 13:50:47;;;;;;;4.63;3.00;;;27.10;31.10;;;;;;4927822;28;20205;-85
2022/06/03 13:53:25;;;;;;;6.13;3.70;;;27.00;32.50;;;;;;4948494;28;20228;-85
2022/06/03 13:56:22;;;;;;;5.05;3.45;;;26.90;33.20;;;;;;4934616;29;20648;-85
2022/06/03 13:58:49;;;;;;;3.95;3.42;;;26.80;32.50;;;;;;4949547;28;20227;-85
2022/06/03 14:01:52;;;;;;;3.60;3.30;;;26.80;32.30;;;;;;4951398;29;20200;-85
2022/06/03 14:04:31;;;;;;;3.92;3.25;;;26.70;31.60;;;;;;4951797;28;20196;-85
2022/06/03 14:07:10;;;;;;;5.20;3.20;;;26.70;31.50;;;;;;4951950;28;20212;-85
2022/06/03 14:09:50;;;;;;;3.42;3.15;;;26.70;30.90;;;;;;4950735;28;20220;-84
2022/06/03 14:12:59;;;;;;;3.40;3.10;;;26.80;30.70;;;;;;4948313;28;20661;-85
2022/06/03 14:15:32;;;;;;;7.13;3.53;;;26.70;32.40;;;;;;4951517;28;20228;-86
2022/06/03 14:18:35;;;;;;;5.60;3.40;;;26.70;32.40;;;;;;5007378;28;20606;-85
2022/06/03 14:21:02;;;;;;;5.35;3.50;;;26.70;33.00;;;;;;4919205;29;20214;-85
2022/06/03 14:24:08;;;;;;;4.45;3.42;;;26.60;34.00;;;;;;4920957;29;20658;-84
2022/06/03 14:26:45;;;;;;;7.80;3.38;;;26.50;37.20;;;;;;4926318;29;20211;-86
2022/06/03 14:32:58;;;;;;;2.97;2.70;;;26.00;34.30;;;;;;4931663;29;20236;-85
2022/06/03 14:35:31;;;;;;;4.13;2.80;;;26.20;30.50;;;;;;4923469;29;20201;-85
2022/06/03 14:38:16;;;;;;;3.58;2.45;;;26.10;30.20;;;;;;4934790;29;20193;-84
2022/06/03 14:40:53;;;;;;;3.22;2.70;;;26.20;29.50;;;;;;4923042;29;20221;-84
2022/06/03 14:43:31;;;;;;;4.13;2.85;;;26.10;30.40;;;;;;4936760;29;20281;-84
2022/06/03 14:46:03;;;;;;;2.83;2.63;;;26.00;30.30;;;;;;4918394;29;20212;-83
2022/06/03 14:48:38;;;;;;;4.95;2.70;;;25.90;30.80;;;;;;4933677;29;20204;-83
2022/06/03 14:51:24;;;;;;;4.35;3.05;;;25.80;31.40;;;;;;4937591;29;20709;-85
2022/06/03 14:54:39;;;;;;;5.03;2.95;;;25.70;32.30;;;;;;4937909;29;20193;-85
2022/06/03 14:57:56;;;;;;;6.43;3.35;;;25.60;32.90;;;;;;4942067;29;20232;-85
2022/06/03 15:00:53;;;;;;;8.20;3.00;;;25.50;34.40;;;;;;5023922;28;20196;-86
2022/06/03 15:03:26;;;;;;;4.43;2.78;;;25.40;36.10;;;;;;5016889;28;20282;-85
2022/06/03 15:05:56;;;;;;;3.20;3.00;;;25.30;36.40;;;;;;5020508;28;20234;-85
2022/06/03 15:08:29;;;;;;;3.90;2.85;;;25.20;36.30;;;;;;5018664;28;20726;-86
2022/06/03 15:11:12;;;;;;;3.58;3.10;;;25.00;38.30;;;;;;5008150;28;20199;-85
2022/06/03 15:13:41;;;;;;;5.95;3.40;;;25.00;39.70;;;;;;5018010;28;20255;-84
2022/06/03 15:16:44;;;;;;;3.55;3.13;;;24.90;41.00;;;;;;5023065;28;20566;-83
2022/06/03 15:29:56;;;;;;;4.05;3.28;;;24.70;45.60;;;;;;5009575;28;20585;-87
2022/06/03 15:32:54;;;;;;;3.80;3.40;;;24.70;44.70;;;;;;5017976;28;20337;-85
2022/06/03 15:35:34;;;;;;;3.92;3.53;;;24.60;44.70;;;;;;5010756;28;20203;-87
2022/06/03 15:41:30;;;;;;;8.95;5.72;;;24.50;46.20;;;;;;5012331;28;20218;-86
2022/06/03 15:44:32;;;;;;;4.38;3.10;;;24.30;48.50;;;;;;5021672;28;20646;-86
2022/06/03 15:50:23;;;;;;;7.93;3.70;;;24.10;49.20;;;;;;5009147;28;20539;-85
2022/06/03 15:56:31;;;;;;;6.82;3.55;;;23.80;53.10;;;;;;5003554;28;20226;-87
2022/06/03 15:59:45;;;;;;;6.07;3.38;;;23.70;54.60;;;;;;4990973;28;20211;-87
2022/06/03 16:53:40;;;;;;;23.27;15.43;;;17.80;99.90;;;;;;4967029;28;20215;-88
2022/06/03 17:00:19;;;;;;;12.63;8.50;;;17.70;99.90;;;;;;5020873;28;20190;-88
2022/06/03 17:03:39;;;;;;;7.18;5.50;;;17.80;99.90;;;;;;5019652;28;20258;-88
2022/06/03 17:06:54;;;;;;;4.88;4.25;;;17.70;99.90;;;;;;5030259;28;20242;-88
2022/06/03 17:10:12;;;;;;;8.82;6.75;;;17.80;99.90;;;;;;5003638;28;20259;-88
2022/06/03 17:49:37;;;;;;;42.53;28.85;;;18.40;99.90;;;;;;4748537;30;20220;-87
2022/06/03 17:56:51;;;;;;;;;;;;;;;;;;;;;
2022/06/03 18:13:37;;;;;;;136.27;121.35;;;18.40;99.90;;;;;;4879242;29;20191;-88
2022/06/03 18:27:14;;;;;;;;;;;;;;;;;;;;;
2022/06/03 18:37:38;;;;;;;10.80;8.18;;;17.90;99.90;;;;;;4878796;29;20244;-88
2022/06/03 19:42:53;;;;;;;;;;;;;;;;;;;;;
2022/06/03 19:56:12;;;;;;;7.05;5.75;;;17.30;99.90;;;;;;4853576;29;20209;-88
2022/06/03 20:22:50;;;;;;;8.30;5.85;;;16.90;99.90;;;;;;4907607;29;20202;-87
2022/06/03 20:25:57;;;;;;;8.88;7.10;;;17.00;99.90;;;;;;4911634;29;20230;-88
2022/06/03 21:49:12;;;;;;;6.65;5.53;;;16.70;99.90;;;;;;4944888;28;20206;-87
2022/06/03 22:36:32;;;;;;;;;;;;;;;;;;;;;
2022/06/03 23:23:53;;;;;;;6.28;5.68;;;15.90;99.90;;;;;;4855471;29;20226;-87
2022/06/03 23:40:43;;;;;;;6.60;5.47;;;15.90;99.90;;;;;;4972965;28;20253;-87
